Time,TemperatureF,DewpointF,PressureIn,WindDirection,WindDirectionDegrees,WindSpeedMPH,WindSpeedGustMPH,Humidity,HourlyPrecipIn,Conditions,Clouds,dailyrainin,SoftwareType,DateUTC
2014-04-18 00:23:00,37.0,27.0,30.59,ESE,113,1.0,7.0,67,0.00,,,0.00,,2014-04-18 04:23:00,
2014-04-18 00:43:00,37.0,28.0,30.59,SSE,150,1.0,6.0,69,0.00,,,0.00,,2014-04-18 04:43:00,
2014-04-18 00:54:00,37.0,28.0,30.59,East,95,2.0,5.0,70,0.00,,,0.00,,2014-04-18 04:54:00,
2014-04-18 01:22:00,37.0,29.0,30.59,SE,129,1.0,4.0,72,0.00,,,0.00,,2014-04-18 05:22:00,
2014-04-18 01:43:00,37.0,29.0,30.59,ESE,103,1.0,3.0,73,0.00,,,0.00,,2014-04-18 05:43:00,
2014-04-18 01:52:00,37.0,29.0,30.59,NNE,15,2.0,5.0,74,0.00,,,0.00,,2014-04-18 05:52:00,
2014-04-18 02:22:00,37.0,29.0,30.60,East,91,1.0,5.0,73,0.00,,,0.00,,2014-04-18 06:22:00,
2014-04-18 02:42:00,37.0,29.0,30.59,SE,137,0.0,3.0,73,0.00,,,0.00,,2014-04-18 06:42:00,
2014-04-18 02:52:00,37.0,29.0,30.57,SE,127,0.0,5.0,73,0.00,,,0.00,,2014-04-18 06:52:00,
2014-04-18 03:22:00,36.0,28.0,30.56,SE,141,1.0,6.0,73,0.00,,,0.00,,2014-04-18 07:22:00,
2014-04-18 03:52:00,36.0,28.0,30.56,NW,304,0.0,5.0,73,0.00,,,0.00,,2014-04-18 07:52:00,
2014-04-18 04:22:00,36.0,29.0,30.53,East,95,3.0,8.0,74,0.00,,,0.00,,2014-04-18 08:22:00,
2014-04-18 04:52:00,36.0,29.0,30.50,ESE,122,1.0,9.0,74,0.00,,,0.00,,2014-04-18 08:52:00,
2014-04-18 05:22:00,35.0,28.0,30.49,SE,132,0.0,7.0,74,0.00,,,0.00,,2014-04-18 09:22:00,
2014-04-18 05:43:00,35.0,28.0,30.50,ESE,115,3.0,10.0,74,0.00,,,0.00,,2014-04-18 09:43:00,
2014-04-18 05:54:00,35.0,28.0,30.50,SE,124,3.0,10.0,74,0.00,,,0.00,,2014-04-18 09:54:00,
2014-04-18 06:23:00,35.0,27.0,30.50,SE,130,2.0,8.0,73,0.00,,,0.00,,2014-04-18 10:23:00,
2014-04-18 06:43:00,35.0,27.0,30.50,ESE,119,1.0,7.0,73,0.00,,,0.00,,2014-04-18 10:43:00,
2014-04-18 06:54:00,35.0,27.0,30.51,SSE,152,2.0,5.0,73,0.00,,,0.00,,2014-04-18 10:54:00,
2014-04-18 07:22:00,35.0,27.0,30.52,East,86,1.0,7.0,73,0.00,,,0.00,,2014-04-18 11:22:00,
2014-04-18 07:43:00,35.0,27.0,30.52,ESE,110,1.0,4.0,72,0.00,,,0.00,,2014-04-18 11:43:00,
2014-04-18 07:53:00,35.0,27.0,30.53,SW,226,0.0,3.0,72,0.00,,,0.00,,2014-04-18 11:53:00,
2014-04-18 08:22:00,36.0,28.0,30.54,ESE,122,0.0,6.0,72,0.00,,,0.00,,2014-04-18 12:22:00,
2014-04-18 08:42:00,36.0,27.0,30.55,SSE,153,1.0,4.0,70,0.00,,,0.00,,2014-04-18 12:42:00,
2014-04-18 08:53:00,36.0,27.0,30.55,SSE,149,1.0,4.0,70,0.00,,,0.00,,2014-04-18 12:53:00,
2014-04-18 09:22:00,37.0,28.0,30.54,SE,131,2.0,6.0,69,0.00,,,0.00,,2014-04-18 13:22:00,
2014-04-18 09:42:00,38.0,29.0,30.54,North,354,0.0,5.0,69,0.00,,,0.00,,2014-04-18 13:42:00,
2014-04-18 09:52:00,39.0,29.0,30.53,ENE,71,1.0,6.0,66,0.00,,,0.00,,2014-04-18 13:52:00,
2014-04-18 10:22:00,40.0,29.0,30.51,East,96,1.0,6.0,65,0.00,,,0.00,,2014-04-18 14:22:00,
2014-04-18 10:42:00,41.0,30.0,30.50,ENE,67,1.0,3.0,64,0.00,,,0.00,,2014-04-18 14:42:00,
2014-04-18 10:51:00,41.0,30.0,30.49,NE,44,3.0,10.0,64,0.00,,,0.00,,2014-04-18 14:51:00,
2014-04-18 11:11:00,41.0,29.0,30.49,North,1,3.0,11.0,63,0.00,,,0.00,,2014-04-18 15:11:00,
2014-04-18 11:21:00,41.0,30.0,30.48,NNW,339,3.0,8.0,65,0.00,,,0.00,,2014-04-18 15:21:00,
2014-04-18 11:43:00,42.0,31.0,30.48,SE,134,1.0,7.0,64,0.00,,,0.00,,2014-04-18 15:43:00,
2014-04-18 11:53:00,41.0,30.0,30.47,NNW,340,5.0,10.0,64,0.00,,,0.00,,2014-04-18 15:53:00,
2014-04-18 12:12:00,43.0,31.0,30.47,South,187,2.0,6.0,63,0.00,,,0.00,,2014-04-18 16:12:00,
2014-04-18 12:22:00,43.0,31.0,30.47,West,260,2.0,6.0,62,0.00,,,0.00,,2014-04-18 16:22:00,
2014-04-18 12:42:00,42.0,30.0,30.47,SSE,154,2.0,6.0,62,0.00,,,0.00,,2014-04-18 16:42:00,
2014-04-18 12:52:00,42.0,30.0,30.46,SE,132,2.0,7.0,63,0.00,,,0.00,,2014-04-18 16:52:00,